sensor_id;sensor_type;location;lat;lon;timestamp;pressure;altitude;pressure_sealevel;temperature;humidity
49063;BME280;34876;51.464;-0.150;2024-02-04T00:00:03;102583.46;;;18.82;47.24
49063;BME280;34876;51.464;-0.150;2024-02-04T00:02:33;102581.54;;;18.98;46.81
49063;BME280;34876;51.464;-0.150;2024-02-04T00:05:03;102579.32;;;18.86;47.34
49063;BME280;34876;51.464;-0.150;2024-02-04T00:07:33;102588.97;;;19.09;46.52
49063;BME280;34876;51.464;-0.150;2024-02-04T00:10:02;102588.38;;;19.06;46.55
49063;BME280;34876;51.464;-0.150;2024-02-04T00:12:31;102586.53;;;19.04;46.61
49063;BME280;34876;51.464;-0.150;2024-02-04T00:15:01;102588.04;;;19.08;46.54
49063;BME280;34876;51.464;-0.150;2024-02-04T00:17:29;102583.72;;;19.10;46.45
49063;BME280;34876;51.464;-0.150;2024-02-04T00:19:59;102580.25;;;19.17;46.24
49063;BME280;34876;51.464;-0.150;2024-02-04T00:22:28;102577.01;;;19.13;46.34
49063;BME280;34876;51.464;-0.150;2024-02-04T00:24:57;102578.14;;;19.15;46.30
49063;BME280;34876;51.464;-0.150;2024-02-04T00:27:26;102576.81;;;18.91;47.07
49063;BME280;34876;51.464;-0.150;2024-02-04T00:29:54;102577.73;;;18.85;47.30
49063;BME280;34876;51.464;-0.150;2024-02-04T00:32:24;102576.37;;;18.97;46.96
49063;BME280;34876;51.464;-0.150;2024-02-04T00:34:53;102580.54;;;19.13;46.49
49063;BME280;34876;51.464;-0.150;2024-02-04T00:37:23;102578.56;;;19.01;47.53
49063;BME280;34876;51.464;-0.150;2024-02-04T00:39:53;102574.53;;;18.85;47.22
49063;BME280;34876;51.464;-0.150;2024-02-04T00:42:22;102582.89;;;18.87;47.35
49063;BME280;34876;51.464;-0.150;2024-02-04T00:44:51;102586.91;;;18.73;50.05
49063;BME280;34876;51.464;-0.150;2024-02-04T00:47:21;102581.24;;;18.95;47.19
49063;BME280;34876;51.464;-0.150;2024-02-04T00:49:51;102580.59;;;18.75;47.52
49063;BME280;34876;51.464;-0.150;2024-02-04T00:52:20;102578.02;;;19.07;46.62
49063;BME280;34876;51.464;-0.150;2024-02-04T00:54:49;102579.23;;;19.12;46.52
49063;BME280;34876;51.464;-0.150;2024-02-04T00:57:18;102582.37;;;18.87;47.06
49063;BME280;34876;51.464;-0.150;2024-02-04T00:59:47;102580.03;;;18.81;47.42
49063;BME280;34876;51.464;-0.150;2024-02-04T01:03:24;102575.36;;;19.12;46.53
49063;BME280;34876;51.464;-0.150;2024-02-04T01:05:54;102568.32;;;19.13;46.55
49063;BME280;34876;51.464;-0.150;2024-02-04T01:08:23;102570.89;;;18.75;47.62
49063;BME280;34876;51.464;-0.150;2024-02-04T01:10:52;102573.10;;;19.09;46.65
49063;BME280;34876;51.464;-0.150;2024-02-04T01:13:21;102574.80;;;19.03;46.87
49063;BME280;34876;51.464;-0.150;2024-02-04T01:15:50;102574.12;;;19.12;46.48
49063;BME280;34876;51.464;-0.150;2024-02-04T01:18:19;102574.11;;;18.43;48.48
49063;BME280;34876;51.464;-0.150;2024-02-04T01:20:49;102571.09;;;18.93;47.28
49063;BME280;34876;51.464;-0.150;2024-02-04T01:23:19;102568.50;;;19.01;47.19
49063;BME280;34876;51.464;-0.150;2024-02-04T01:25:48;102576.86;;;19.09;47.05
49063;BME280;34876;51.464;-0.150;2024-02-04T01:28:17;102581.57;;;18.91;47.34
49063;BME280;34876;51.464;-0.150;2024-02-04T01:30:46;102586.54;;;19.10;46.66
49063;BME280;34876;51.464;-0.150;2024-02-04T01:33:15;102578.87;;;19.01;46.93
49063;BME280;34876;51.464;-0.150;2024-02-04T01:35:45;102573.04;;;19.11;46.67
49063;BME280;34876;51.464;-0.150;2024-02-04T01:38:14;102576.35;;;19.13;46.71
49063;BME280;34876;51.464;-0.150;2024-02-04T01:40:44;102572.89;;;19.14;46.52
49063;BME280;34876;51.464;-0.150;2024-02-04T01:43:13;102571.29;;;19.00;47.14
49063;BME280;34876;51.464;-0.150;2024-02-04T01:45:42;102568.17;;;19.09;46.84
49063;BME280;34876;51.464;-0.150;2024-02-04T01:48:11;102570.01;;;18.23;50.62
49063;BME280;34876;51.464;-0.150;2024-02-04T01:50:41;102567.05;;;19.03;46.95
49063;BME280;34876;51.464;-0.150;2024-02-04T01:53:11;102568.20;;;19.11;46.87
49063;BME280;34876;51.464;-0.150;2024-02-04T01:55:40;102566.12;;;18.87;47.44
49063;BME280;34876;51.464;-0.150;2024-02-04T01:58:09;102564.22;;;19.04;46.98
49063;BME280;34876;51.464;-0.150;2024-02-04T02:00:38;102557.42;;;18.83;47.84
49063;BME280;34876;51.464;-0.150;2024-02-04T02:03:07;102555.28;;;19.09;46.87
49063;BME280;34876;51.464;-0.150;2024-02-04T02:05:40;102548.65;;;19.13;46.68
49063;BME280;34876;51.464;-0.150;2024-02-04T02:08:10;102551.29;;;19.01;47.06
49063;BME280;34876;51.464;-0.150;2024-02-04T02:10:39;102556.12;;;19.12;46.70
49063;BME280;34876;51.464;-0.150;2024-02-04T02:13:14;102554.96;;;19.15;46.75
49063;BME280;34876;51.464;-0.150;2024-02-04T02:15:48;102549.19;;;19.14;46.66
49063;BME280;34876;51.464;-0.150;2024-02-04T02:18:23;102543.33;;;18.88;47.42
49063;BME280;34876;51.464;-0.150;2024-02-04T02:21:06;102546.83;;;18.97;47.25
49063;BME280;34876;51.464;-0.150;2024-02-04T02:23:48;102540.27;;;19.13;46.80
49063;BME280;34876;51.464;-0.150;2024-02-04T02:26:23;102547.74;;;18.45;48.83
49063;BME280;34876;51.464;-0.150;2024-02-04T02:28:52;102549.94;;;18.98;47.26
49063;BME280;34876;51.464;-0.150;2024-02-04T02:31:20;102555.10;;;19.05;46.99
49063;BME280;34876;51.464;-0.150;2024-02-04T02:33:50;102558.34;;;18.81;47.79
49063;BME280;34876;51.464;-0.150;2024-02-04T02:36:21;102566.62;;;18.77;49.05
49063;BME280;34876;51.464;-0.150;2024-02-04T02:38:58;102560.37;;;19.07;47.15
49063;BME280;34876;51.464;-0.150;2024-02-04T02:41:30;102554.85;;;19.04;47.18
49063;BME280;34876;51.464;-0.150;2024-02-04T02:44:01;102532.93;;;18.85;47.84
49063;BME280;34876;51.464;-0.150;2024-02-04T02:46:36;102536.06;;;18.80;47.95
49063;BME280;34876;51.464;-0.150;2024-02-04T02:49:05;102545.67;;;19.09;47.26
49063;BME280;34876;51.464;-0.150;2024-02-04T02:51:34;102546.22;;;19.13;46.95
49063;BME280;34876;51.464;-0.150;2024-02-04T02:54:03;102549.71;;;18.79;47.85
49063;BME280;34876;51.464;-0.150;2024-02-04T02:56:32;102541.63;;;19.11;46.97
49063;BME280;34876;51.464;-0.150;2024-02-04T02:59:02;102535.84;;;19.12;46.96
49063;BME280;34876;51.464;-0.150;2024-02-04T03:01:32;102522.89;;;19.02;47.12
49063;BME280;34876;51.464;-0.150;2024-02-04T03:04:00;102509.89;;;19.15;46.79
49063;BME280;34876;51.464;-0.150;2024-02-04T03:06:30;102523.88;;;19.07;47.78
49063;BME280;34876;51.464;-0.150;2024-02-04T03:09:01;102529.61;;;19.02;47.18
49063;BME280;34876;51.464;-0.150;2024-02-04T03:11:31;102519.31;;;19.13;46.80
49063;BME280;34876;51.464;-0.150;2024-02-04T03:14:01;102516.46;;;19.05;47.10
49063;BME280;34876;51.464;-0.150;2024-02-04T03:16:30;102531.95;;;19.01;47.13
49063;BME280;34876;51.464;-0.150;2024-02-04T03:18:59;102539.92;;;18.82;47.62
49063;BME280;34876;51.464;-0.150;2024-02-04T03:21:28;102542.17;;;19.04;47.31
49063;BME280;34876;51.464;-0.150;2024-02-04T03:23:57;102536.78;;;19.12;47.02
49063;BME280;34876;51.464;-0.150;2024-02-04T03:26:27;102527.10;;;19.15;46.81
49063;BME280;34876;51.464;-0.150;2024-02-04T03:28:57;102526.08;;;19.12;46.87
49063;BME280;34876;51.464;-0.150;2024-02-04T03:31:27;102531.35;;;19.15;46.70
49063;BME280;34876;51.464;-0.150;2024-02-04T03:33:57;102537.62;;;19.14;46.95
49063;BME280;34876;51.464;-0.150;2024-02-04T03:36:26;102523.27;;;19.12;46.99
49063;BME280;34876;51.464;-0.150;2024-02-04T03:38:55;102520.88;;;19.15;46.78
49063;BME280;34876;51.464;-0.150;2024-02-04T03:41:23;102523.11;;;18.99;47.20
49063;BME280;34876;51.464;-0.150;2024-02-04T03:43:55;102519.39;;;19.07;46.95
49063;BME280;34876;51.464;-0.150;2024-02-04T03:46:24;102520.37;;;18.97;47.32
49063;BME280;34876;51.464;-0.150;2024-02-04T03:48:53;102518.71;;;18.48;48.50
49063;BME280;34876;51.464;-0.150;2024-02-04T03:51:23;102509.19;;;19.03;46.97
49063;BME280;34876;51.464;-0.150;2024-02-04T03:53:53;102509.74;;;19.05;46.94
49063;BME280;34876;51.464;-0.150;2024-02-04T03:56:23;102514.20;;;19.04;47.03
49063;BME280;34876;51.464;-0.150;2024-02-04T03:58:52;102513.07;;;19.10;46.90
49063;BME280;34876;51.464;-0.150;2024-02-04T04:01:23;102507.56;;;19.14;46.87
49063;BME280;34876;51.464;-0.150;2024-02-04T04:03:52;102509.53;;;19.14;46.84
49063;BME280;34876;51.464;-0.150;2024-02-04T04:06:20;102505.78;;;19.12;46.95
49063;BME280;34876;51.464;-0.150;2024-02-04T04:08:50;102511.77;;;18.65;48.14
49063;BME280;34876;51.464;-0.150;2024-02-04T04:11:19;102509.20;;;18.88;47.59
49063;BME280;34876;51.464;-0.150;2024-02-04T04:13:49;102486.91;;;19.09;47.03
49063;BME280;34876;51.464;-0.150;2024-02-04T04:16:21;102494.23;;;19.08;47.72
49063;BME280;34876;51.464;-0.150;2024-02-04T04:18:50;102493.72;;;18.73;49.03
49063;BME280;34876;51.464;-0.150;2024-02-04T04:21:19;102490.49;;;19.07;46.88
49063;BME280;34876;51.464;-0.150;2024-02-04T04:23:49;102492.02;;;19.12;46.79
49063;BME280;34876;51.464;-0.150;2024-02-04T04:26:18;102491.12;;;18.98;47.38
49063;BME280;34876;51.464;-0.150;2024-02-04T04:28:49;102502.09;;;18.93;47.40
49063;BME280;34876;51.464;-0.150;2024-02-04T04:31:18;102506.55;;;18.94;47.43
49063;BME280;34876;51.464;-0.150;2024-02-04T04:33:47;102493.32;;;18.94;47.47
49063;BME280;34876;51.464;-0.150;2024-02-04T04:36:17;102485.86;;;18.50;48.60
49063;BME280;34876;51.464;-0.150;2024-02-04T04:38:46;102478.14;;;19.02;47.16
49063;BME280;34876;51.464;-0.150;2024-02-04T04:41:17;102473.88;;;19.01;47.06
49063;BME280;34876;51.464;-0.150;2024-02-04T04:43:46;102474.66;;;18.54;48.33
49063;BME280;34876;51.464;-0.150;2024-02-04T04:46:17;102456.48;;;19.01;47.00
49063;BME280;34876;51.464;-0.150;2024-02-04T04:48:46;102452.54;;;19.00;47.12
49063;BME280;34876;51.464;-0.150;2024-02-04T04:51:16;102454.74;;;18.98;47.00
49063;BME280;34876;51.464;-0.150;2024-02-04T04:53:45;102456.06;;;19.08;46.78
49063;BME280;34876;51.464;-0.150;2024-02-04T04:56:14;102460.45;;;18.94;47.15
49063;BME280;34876;51.464;-0.150;2024-02-04T04:58:44;102463.13;;;19.06;46.81
49063;BME280;34876;51.464;-0.150;2024-02-04T05:01:13;102464.37;;;18.86;47.29
49063;BME280;34876;51.464;-0.150;2024-02-04T05:03:44;102466.88;;;19.06;46.78
49063;BME280;34876;51.464;-0.150;2024-02-04T05:06:13;102465.89;;;19.09;46.64
49063;BME280;34876;51.464;-0.150;2024-02-04T05:08:43;102459.05;;;18.98;46.98
49063;BME280;34876;51.464;-0.150;2024-02-04T05:11:13;102453.47;;;19.06;46.70
49063;BME280;34876;51.464;-0.150;2024-02-04T05:13:42;102453.23;;;19.07;46.67
49063;BME280;34876;51.464;-0.150;2024-02-04T05:16:11;102451.60;;;19.08;46.65
49063;BME280;34876;51.464;-0.150;2024-02-04T05:18:40;102451.99;;;19.07;46.65
49063;BME280;34876;51.464;-0.150;2024-02-04T05:21:11;102450.15;;;18.89;47.52
49063;BME280;34876;51.464;-0.150;2024-02-04T05:23:41;102449.58;;;18.98;46.93
49063;BME280;34876;51.464;-0.150;2024-02-04T05:26:10;102451.89;;;18.97;46.98
49063;BME280;34876;51.464;-0.150;2024-02-04T05:28:39;102458.06;;;19.01;46.87
49063;BME280;34876;51.464;-0.150;2024-02-04T05:31:08;102460.56;;;18.96;47.07
49063;BME280;34876;51.464;-0.150;2024-02-04T05:33:37;102458.62;;;18.85;47.28
49063;BME280;34876;51.464;-0.150;2024-02-04T05:36:06;102457.87;;;19.00;46.99
49063;BME280;34876;51.464;-0.150;2024-02-04T05:38:36;102454.68;;;18.98;47.04
49063;BME280;34876;51.464;-0.150;2024-02-04T05:41:06;102460.03;;;18.99;47.02
49063;BME280;34876;51.464;-0.150;2024-02-04T05:43:36;102451.61;;;19.10;46.57
49063;BME280;34876;51.464;-0.150;2024-02-04T05:46:05;102444.89;;;19.06;46.70
49063;BME280;34876;51.464;-0.150;2024-02-04T05:48:35;102453.53;;;18.84;47.28
49063;BME280;34876;51.464;-0.150;2024-02-04T05:51:05;102461.68;;;18.59;48.07
49063;BME280;34876;51.464;-0.150;2024-02-04T05:53:34;102461.26;;;18.94;48.10
49063;BME280;34876;51.464;-0.150;2024-02-04T05:56:03;102459.27;;;18.76;47.93
49063;BME280;34876;51.464;-0.150;2024-02-04T05:58:33;102461.97;;;18.70;47.89
49063;BME280;34876;51.464;-0.150;2024-02-04T06:01:02;102462.47;;;18.22;49.52
49063;BME280;34876;51.464;-0.150;2024-02-04T06:03:31;102452.63;;;18.81;47.72
49063;BME280;34876;51.464;-0.150;2024-02-04T06:06:01;102451.11;;;19.03;46.98
49063;BME280;34876;51.464;-0.150;2024-02-04T06:08:31;102451.81;;;18.95;47.28
49063;BME280;34876;51.464;-0.150;2024-02-04T06:11:00;102449.19;;;18.74;47.73
49063;BME280;34876;51.464;-0.150;2024-02-04T06:13:29;102445.78;;;18.57;48.36
49063;BME280;34876;51.464;-0.150;2024-02-04T06:15:58;102435.23;;;19.03;46.92
49063;BME280;34876;51.464;-0.150;2024-02-04T06:18:27;102432.37;;;19.09;46.81
49063;BME280;34876;51.464;-0.150;2024-02-04T06:20:56;102432.86;;;19.11;46.69
49063;BME280;34876;51.464;-0.150;2024-02-04T06:23:27;102431.10;;;18.97;47.06
49063;BME280;34876;51.464;-0.150;2024-02-04T06:25:56;102428.86;;;19.11;46.63
49063;BME280;34876;51.464;-0.150;2024-02-04T06:28:25;102419.53;;;18.93;49.24
49063;BME280;34876;51.464;-0.150;2024-02-04T06:30:54;102418.40;;;19.05;46.92
49063;BME280;34876;51.464;-0.150;2024-02-04T06:33:24;102412.31;;;18.87;47.46
49063;BME280;34876;51.464;-0.150;2024-02-04T06:35:54;102402.15;;;19.07;46.78
49063;BME280;34876;51.464;-0.150;2024-02-04T06:38:24;102400.24;;;19.10;46.73
49063;BME280;34876;51.464;-0.150;2024-02-04T06:40:55;102404.22;;;19.07;46.88
49063;BME280;34876;51.464;-0.150;2024-02-04T06:43:24;102408.48;;;18.55;48.26
49063;BME280;34876;51.464;-0.150;2024-02-04T06:45:53;102413.54;;;19.01;46.99
49063;BME280;34876;51.464;-0.150;2024-02-04T06:48:21;102407.19;;;19.08;46.78
49063;BME280;34876;51.464;-0.150;2024-02-04T06:50:50;102407.21;;;18.59;48.22
49063;BME280;34876;51.464;-0.150;2024-02-04T06:53:20;102410.41;;;19.03;46.97
49063;BME280;34876;51.464;-0.150;2024-02-04T06:55:49;102408.15;;;18.96;47.12
49063;BME280;34876;51.464;-0.150;2024-02-04T06:58:19;102409.59;;;19.05;46.90
49063;BME280;34876;51.464;-0.150;2024-02-04T07:00:49;102409.56;;;18.90;47.47
49063;BME280;34876;51.464;-0.150;2024-02-04T07:03:18;102407.59;;;18.76;48.68
49063;BME280;34876;51.464;-0.150;2024-02-04T07:05:48;102409.91;;;18.11;49.96
49063;BME280;34876;51.464;-0.150;2024-02-04T07:08:17;102399.20;;;18.87;47.47
49063;BME280;34876;51.464;-0.150;2024-02-04T07:10:46;102393.58;;;19.03;47.03
49063;BME280;34876;51.464;-0.150;2024-02-04T07:13:16;102393.49;;;19.00;47.11
49063;BME280;34876;51.464;-0.150;2024-02-04T07:15:45;102392.49;;;19.09;46.80
49063;BME280;34876;51.464;-0.150;2024-02-04T07:18:15;102398.40;;;19.12;46.76
49063;BME280;34876;51.464;-0.150;2024-02-04T07:20:45;102400.17;;;19.12;46.69
49063;BME280;34876;51.464;-0.150;2024-02-04T07:23:15;102403.81;;;19.13;46.71
49063;BME280;34876;51.464;-0.150;2024-02-04T07:25:44;102401.04;;;18.85;47.43
49063;BME280;34876;51.464;-0.150;2024-02-04T07:28:14;102402.02;;;18.46;50.09
49063;BME280;34876;51.464;-0.150;2024-02-04T07:30:44;102402.92;;;18.09;50.03
49063;BME280;34876;51.464;-0.150;2024-02-04T07:33:13;102395.76;;;18.68;48.27
49063;BME280;34876;51.464;-0.150;2024-02-04T07:35:43;102395.81;;;18.34;50.69
49063;BME280;34876;51.464;-0.150;2024-02-04T07:38:12;102395.40;;;18.57;48.68
49063;BME280;34876;51.464;-0.150;2024-02-04T07:40:42;102396.24;;;18.97;47.43
49063;BME280;34876;51.464;-0.150;2024-02-04T07:43:11;102395.15;;;18.80;47.97
49063;BME280;34876;51.464;-0.150;2024-02-04T07:45:40;102397.95;;;18.82;47.72
49063;BME280;34876;51.464;-0.150;2024-02-04T07:48:09;102393.16;;;18.50;49.04
49063;BME280;34876;51.464;-0.150;2024-02-04T07:50:38;102400.04;;;18.83;47.78
49063;BME280;34876;51.464;-0.150;2024-02-04T07:53:08;102403.04;;;19.03;47.30
49063;BME280;34876;51.464;-0.150;2024-02-04T07:55:37;102418.12;;;18.86;47.74
49063;BME280;34876;51.464;-0.150;2024-02-04T07:58:07;102421.75;;;19.11;46.99
49063;BME280;34876;51.464;-0.150;2024-02-04T08:00:36;102422.69;;;19.08;47.12
49063;BME280;34876;51.464;-0.150;2024-02-04T08:03:05;102419.76;;;19.12;47.08
49063;BME280;34876;51.464;-0.150;2024-02-04T08:05:34;102430.87;;;18.57;51.36
49063;BME280;34876;51.464;-0.150;2024-02-04T08:08:04;102424.62;;;18.93;47.68
49063;BME280;34876;51.464;-0.150;2024-02-04T08:10:33;102428.27;;;19.09;47.11
49063;BME280;34876;51.464;-0.150;2024-02-04T08:13:03;102433.82;;;18.41;51.90
49063;BME280;34876;51.464;-0.150;2024-02-04T08:15:33;102419.46;;;19.02;47.28
49063;BME280;34876;51.464;-0.150;2024-02-04T08:18:03;102413.31;;;19.10;48.07
49063;BME280;34876;51.464;-0.150;2024-02-04T08:20:33;102412.45;;;19.05;47.13
49063;BME280;34876;51.464;-0.150;2024-02-04T08:23:02;102413.96;;;19.06;47.08
49063;BME280;34876;51.464;-0.150;2024-02-04T08:25:31;102408.41;;;19.14;46.84
49063;BME280;34876;51.464;-0.150;2024-02-04T08:28:02;102414.24;;;18.91;47.52
49063;BME280;34876;51.464;-0.150;2024-02-04T08:30:32;102408.75;;;19.11;47.09
49063;BME280;34876;51.464;-0.150;2024-02-04T08:33:01;102406.07;;;19.17;46.85
49063;BME280;34876;51.464;-0.150;2024-02-04T08:35:29;102407.38;;;18.97;47.45
49063;BME280;34876;51.464;-0.150;2024-02-04T08:37:59;102403.13;;;19.00;47.30
49063;BME280;34876;51.464;-0.150;2024-02-04T08:40:28;102398.94;;;18.91;50.15
49063;BME280;34876;51.464;-0.150;2024-02-04T08:42:57;102405.90;;;19.14;46.97
49063;BME280;34876;51.464;-0.150;2024-02-04T08:45:26;102420.18;;;18.68;50.82
49063;BME280;34876;51.464;-0.150;2024-02-04T08:47:55;102408.85;;;19.13;46.89
49063;BME280;34876;51.464;-0.150;2024-02-04T08:50:25;102407.22;;;19.11;47.00
49063;BME280;34876;51.464;-0.150;2024-02-04T08:52:55;102413.22;;;19.18;46.77
49063;BME280;34876;51.464;-0.150;2024-02-04T08:55:25;102413.91;;;18.62;48.89
49063;BME280;34876;51.464;-0.150;2024-02-04T08:57:55;102417.76;;;18.61;51.41
49063;BME280;34876;51.464;-0.150;2024-02-04T09:00:24;102414.43;;;19.03;47.41
49063;BME280;34876;51.464;-0.150;2024-02-04T09:02:53;102414.99;;;18.80;48.15
49063;BME280;34876;51.464;-0.150;2024-02-04T09:05:23;102408.47;;;19.14;47.07
49063;BME280;34876;51.464;-0.150;2024-02-04T09:07:53;102413.34;;;19.00;47.62
49063;BME280;34876;51.464;-0.150;2024-02-04T09:10:23;102419.32;;;19.05;47.46
49063;BME280;34876;51.464;-0.150;2024-02-04T09:12:52;102422.29;;;19.06;47.49
49063;BME280;34876;51.464;-0.150;2024-02-04T09:15:22;102424.99;;;19.11;47.46
49063;BME280;34876;51.464;-0.150;2024-02-04T09:17:52;102430.54;;;19.13;47.46
49063;BME280;34876;51.464;-0.150;2024-02-04T09:20:22;102426.16;;;19.19;47.20
49063;BME280;34876;51.464;-0.150;2024-02-04T09:22:51;102428.69;;;18.79;48.19
49063;BME280;34876;51.464;-0.150;2024-02-04T09:25:21;102429.11;;;18.86;48.02
49063;BME280;34876;51.464;-0.150;2024-02-04T09:27:49;102433.60;;;18.71;48.45
49063;BME280;34876;51.464;-0.150;2024-02-04T09:30:19;102433.07;;;18.99;47.62
49063;BME280;34876;51.464;-0.150;2024-02-04T09:32:48;102435.56;;;18.96;47.77
49063;BME280;34876;51.464;-0.150;2024-02-04T09:35:18;102433.41;;;19.09;47.24
49063;BME280;34876;51.464;-0.150;2024-02-04T09:37:47;102430.94;;;19.22;46.88
49063;BME280;34876;51.464;-0.150;2024-02-04T09:40:17;102433.73;;;19.13;47.88
49063;BME280;34876;51.464;-0.150;2024-02-04T09:42:47;102431.10;;;19.27;46.77
49063;BME280;34876;51.464;-0.150;2024-02-04T09:45:16;102432.48;;;18.85;48.12
49063;BME280;34876;51.464;-0.150;2024-02-04T09:47:46;102435.97;;;18.98;48.99
49063;BME280;34876;51.464;-0.150;2024-02-04T09:50:18;102438.50;;;18.47;51.84
49063;BME280;34876;51.464;-0.150;2024-02-04T09:52:49;102440.55;;;19.07;47.49
49063;BME280;34876;51.464;-0.150;2024-02-04T09:55:20;102441.38;;;18.91;47.89
49063;BME280;34876;51.464;-0.150;2024-02-04T09:57:48;102437.41;;;19.05;47.59
49063;BME280;34876;51.464;-0.150;2024-02-04T10:00:19;102438.78;;;19.24;46.99
49063;BME280;34876;51.464;-0.150;2024-02-04T10:02:49;102439.36;;;19.23;47.02
49063;BME280;34876;51.464;-0.150;2024-02-04T10:05:18;102448.12;;;19.14;47.59
49063;BME280;34876;51.464;-0.150;2024-02-04T10:07:47;102446.57;;;19.31;46.81
49063;BME280;34876;51.464;-0.150;2024-02-04T10:10:17;102460.12;;;18.43;49.37
49063;BME280;34876;51.464;-0.150;2024-02-04T10:12:47;102451.46;;;19.02;47.77
49063;BME280;34876;51.464;-0.150;2024-02-04T10:15:16;102442.98;;;19.24;47.08
49063;BME280;34876;51.464;-0.150;2024-02-04T10:17:45;102442.41;;;19.29;46.81
49063;BME280;34876;51.464;-0.150;2024-02-04T10:20:15;102442.73;;;19.31;46.93
49063;BME280;34876;51.464;-0.150;2024-02-04T10:22:45;102453.29;;;18.85;48.30
49063;BME280;34876;51.464;-0.150;2024-02-04T10:25:15;102444.12;;;19.28;46.91
49063;BME280;34876;51.464;-0.150;2024-02-04T10:27:45;102449.06;;;19.11;47.52
49063;BME280;34876;51.464;-0.150;2024-02-04T10:30:15;102456.83;;;18.33;50.16
49063;BME280;34876;51.464;-0.150;2024-02-04T10:32:50;102452.97;;;19.11;47.38
49063;BME280;34876;51.464;-0.150;2024-02-04T10:35:21;102449.96;;;19.25;48.50
49063;BME280;34876;51.464;-0.150;2024-02-04T10:37:50;102449.00;;;19.41;46.60
49063;BME280;34876;51.464;-0.150;2024-02-04T10:40:20;102451.74;;;19.18;47.23
49063;BME280;34876;51.464;-0.150;2024-02-04T10:42:50;102452.54;;;19.40;46.69
49063;BME280;34876;51.464;-0.150;2024-02-04T10:45:26;102449.81;;;18.94;48.29
49063;BME280;34876;51.464;-0.150;2024-02-04T10:48:01;102442.43;;;19.22;47.57
49063;BME280;34876;51.464;-0.150;2024-02-04T10:50:32;102442.28;;;18.95;48.51
49063;BME280;34876;51.464;-0.150;2024-02-04T10:53:06;102442.32;;;19.25;47.33
49063;BME280;34876;51.464;-0.150;2024-02-04T10:55:41;102443.39;;;19.15;48.88
49063;BME280;34876;51.464;-0.150;2024-02-04T10:58:13;102441.76;;;18.93;48.61
49063;BME280;34876;51.464;-0.150;2024-02-04T11:00:51;102442.58;;;19.01;49.16
49063;BME280;34876;51.464;-0.150;2024-02-04T11:03:21;102442.59;;;19.22;48.05
49063;BME280;34876;51.464;-0.150;2024-02-04T11:05:51;102445.92;;;18.82;49.28
49063;BME280;34876;51.464;-0.150;2024-02-04T11:08:21;102445.92;;;19.11;48.53
49063;BME280;34876;51.464;-0.150;2024-02-04T11:10:52;102440.48;;;18.62;49.71
49063;BME280;34876;51.464;-0.150;2024-02-04T11:13:22;102438.61;;;19.03;48.63
49063;BME280;34876;51.464;-0.150;2024-02-04T11:15:54;102437.91;;;19.19;48.20
49063;BME280;34876;51.464;-0.150;2024-02-04T11:18:41;102436.16;;;19.11;48.66
49063;BME280;34876;51.464;-0.150;2024-02-04T11:21:28;102430.65;;;19.41;47.26
49063;BME280;34876;51.464;-0.150;2024-02-04T11:24:12;102430.11;;;18.82;48.61
49063;BME280;34876;51.464;-0.150;2024-02-04T11:26:46;102432.68;;;19.34;47.22
49063;BME280;34876;51.464;-0.150;2024-02-04T11:29:18;102427.90;;;19.25;47.29
49063;BME280;34876;51.464;-0.150;2024-02-04T11:31:47;102422.53;;;18.75;48.71
49063;BME280;34876;51.464;-0.150;2024-02-04T11:34:17;102418.26;;;19.29;47.28
49063;BME280;34876;51.464;-0.150;2024-02-04T11:36:48;102418.21;;;19.32;47.19
49063;BME280;34876;51.464;-0.150;2024-02-04T11:39:18;102413.60;;;19.01;48.30
49063;BME280;34876;51.464;-0.150;2024-02-04T11:41:48;102406.90;;;18.84;48.70
49063;BME280;34876;51.464;-0.150;2024-02-04T11:44:21;102403.21;;;18.82;48.93
49063;BME280;34876;51.464;-0.150;2024-02-04T11:46:51;102414.18;;;18.32;49.93
49063;BME280;34876;51.464;-0.150;2024-02-04T11:49:25;102406.27;;;19.07;47.92
49063;BME280;34876;51.464;-0.150;2024-02-04T11:51:54;102406.78;;;19.35;47.15
49063;BME280;34876;51.464;-0.150;2024-02-04T11:54:23;102404.72;;;19.44;46.75
49063;BME280;34876;51.464;-0.150;2024-02-04T11:56:54;102404.00;;;19.39;46.94
49063;BME280;34876;51.464;-0.150;2024-02-04T11:59:25;102409.17;;;18.61;50.07
49063;BME280;34876;51.464;-0.150;2024-02-04T12:01:55;102407.97;;;18.91;48.28
49063;BME280;34876;51.464;-0.150;2024-02-04T12:04:27;102405.15;;;19.09;48.60
49063;BME280;34876;51.464;-0.150;2024-02-04T12:06:57;102411.04;;;19.26;47.22
49063;BME280;34876;51.464;-0.150;2024-02-04T12:09:29;102406.86;;;19.00;48.11
49063;BME280;34876;51.464;-0.150;2024-02-04T12:11:57;102400.61;;;18.93;47.99
49063;BME280;34876;51.464;-0.150;2024-02-04T12:14:27;102400.46;;;18.73;48.50
49063;BME280;34876;51.464;-0.150;2024-02-04T12:16:57;102400.43;;;18.89;48.42
49063;BME280;34876;51.464;-0.150;2024-02-04T12:19:27;102398.57;;;18.37;50.35
49063;BME280;34876;51.464;-0.150;2024-02-04T12:21:57;102389.71;;;18.60;49.31
49063;BME280;34876;51.464;-0.150;2024-02-04T12:24:28;102391.74;;;18.37;49.45
49063;BME280;34876;51.464;-0.150;2024-02-04T12:26:59;102386.92;;;18.79;48.27
49063;BME280;34876;51.464;-0.150;2024-02-04T12:29:30;102392.44;;;18.17;51.36
49063;BME280;34876;51.464;-0.150;2024-02-04T12:31:59;102384.06;;;18.49;49.05
49063;BME280;34876;51.464;-0.150;2024-02-04T12:34:30;102393.51;;;18.17;50.06
49063;BME280;34876;51.464;-0.150;2024-02-04T12:37:01;102382.04;;;18.49;49.13
49063;BME280;34876;51.464;-0.150;2024-02-04T12:39:32;102369.46;;;19.00;47.75
49063;BME280;34876;51.464;-0.150;2024-02-04T12:42:01;102369.96;;;18.74;49.50
49063;BME280;34876;51.464;-0.150;2024-02-04T12:44:32;102370.78;;;18.76;48.64
49063;BME280;34876;51.464;-0.150;2024-02-04T12:47:01;102377.07;;;18.57;49.22
49063;BME280;34876;51.464;-0.150;2024-02-04T12:49:31;102364.40;;;19.07;47.74
49063;BME280;34876;51.464;-0.150;2024-02-04T12:52:06;102363.87;;;18.99;47.98
49063;BME280;34876;51.464;-0.150;2024-02-04T12:54:41;102362.31;;;19.01;48.10